sensor_id;sensor_type;location;lat;lon;timestamp;pressure;altitude;pressure_sealevel;temperature;humidity
71974;BME280;59840;52.122;5.404;2024-01-06T00:00:29;100522.00;;;5.53;100.00
71974;BME280;59840;52.122;5.404;2024-01-06T00:02:56;100532.47;;;5.53;100.00
71974;BME280;59840;52.122;5.404;2024-01-06T00:05:23;100525.50;;;5.47;100.00
71974;BME280;59840;52.122;5.404;2024-01-06T00:07:49;100530.31;;;5.50;100.00
71974;BME280;59840;52.122;5.404;2024-01-06T00:10:17;100539.16;;;5.49;100.00
71974;BME280;59840;52.122;5.404;2024-01-06T00:12:44;100534.72;;;5.49;100.00
71974;BME280;59840;52.122;5.404;2024-01-06T00:15:11;100538.81;;;5.45;100.00
71974;BME280;59840;52.122;5.404;2024-01-06T00:17:38;100550.50;;;5.43;100.00
71974;BME280;59840;52.122;5.404;2024-01-06T00:20:05;100558.13;;;5.44;100.00
71974;BME280;59840;52.122;5.404;2024-01-06T00:22:32;100564.59;;;5.42;100.00
71974;BME280;59840;52.122;5.404;2024-01-06T00:24:59;100569.25;;;5.39;100.00
71974;BME280;59840;52.122;5.404;2024-01-06T00:27:27;100572.06;;;5.38;100.00
71974;BME280;59840;52.122;5.404;2024-01-06T00:29:53;100569.09;;;5.34;100.00
71974;BME280;59840;52.122;5.404;2024-01-06T00:32:20;100579.19;;;5.31;100.00
71974;BME280;59840;52.122;5.404;2024-01-06T00:34:47;100572.34;;;5.30;100.00
71974;BME280;59840;52.122;5.404;2024-01-06T00:37:14;100561.94;;;5.23;100.00
71974;BME280;59840;52.122;5.404;2024-01-06T00:39:40;100567.38;;;5.22;100.00
71974;BME280;59840;52.122;5.404;2024-01-06T00:42:07;100569.19;;;5.21;100.00
71974;BME280;59840;52.122;5.404;2024-01-06T00:44:36;100579.53;;;5.16;100.00
71974;BME280;59840;52.122;5.404;2024-01-06T00:47:03;100572.13;;;5.13;100.00
71974;BME280;59840;52.122;5.404;2024-01-06T00:49:29;100578.16;;;5.14;100.00
71974;BME280;59840;52.122;5.404;2024-01-06T00:51:56;100574.31;;;5.16;100.00
71974;BME280;59840;52.122;5.404;2024-01-06T00:54:23;100584.88;;;5.21;100.00
71974;BME280;59840;52.122;5.404;2024-01-06T00:56:50;100593.19;;;5.18;100.00
71974;BME280;59840;52.122;5.404;2024-01-06T00:59:16;100586.78;;;5.14;100.00
71974;BME280;59840;52.122;5.404;2024-01-06T01:01:43;100580.38;;;5.10;100.00
71974;BME280;59840;52.122;5.404;2024-01-06T01:04:09;100587.63;;;5.08;100.00
71974;BME280;59840;52.122;5.404;2024-01-06T01:06:37;100586.03;;;5.07;100.00
71974;BME280;59840;52.122;5.404;2024-01-06T01:09:04;100595.50;;;5.08;100.00
71974;BME280;59840;52.122;5.404;2024-01-06T01:11:30;100596.50;;;5.07;100.00
71974;BME280;59840;52.122;5.404;2024-01-06T01:13:57;100593.66;;;5.09;100.00
71974;BME280;59840;52.122;5.404;2024-01-06T01:16:24;100603.97;;;5.03;100.00
71974;BME280;59840;52.122;5.404;2024-01-06T01:18:51;100605.34;;;5.06;100.00
71974;BME280;59840;52.122;5.404;2024-01-06T01:21:20;100614.22;;;5.05;100.00
71974;BME280;59840;52.122;5.404;2024-01-06T01:23:46;100623.91;;;4.98;100.00
71974;BME280;59840;52.122;5.404;2024-01-06T01:26:13;100623.75;;;4.93;100.00
71974;BME280;59840;52.122;5.404;2024-01-06T01:28:39;100623.16;;;4.91;100.00
71974;BME280;59840;52.122;5.404;2024-01-06T01:31:06;100627.78;;;4.89;100.00
71974;BME280;59840;52.122;5.404;2024-01-06T01:33:33;100625.19;;;4.89;100.00
71974;BME280;59840;52.122;5.404;2024-01-06T01:36:00;100634.63;;;4.90;100.00
71974;BME280;59840;52.122;5.404;2024-01-06T01:38:28;100642.75;;;4.82;100.00
71974;BME280;59840;52.122;5.404;2024-01-06T01:40:55;100648.41;;;4.79;100.00
71974;BME280;59840;52.122;5.404;2024-01-06T01:43:22;100648.81;;;4.76;100.00
71974;BME280;59840;52.122;5.404;2024-01-06T01:45:53;100667.13;;;4.69;100.00
71974;BME280;59840;52.122;5.404;2024-01-06T01:48:20;100662.53;;;4.64;100.00
71974;BME280;59840;52.122;5.404;2024-01-06T01:50:48;100662.94;;;4.61;100.00
71974;BME280;59840;52.122;5.404;2024-01-06T01:53:15;100666.16;;;4.63;100.00
71974;BME280;59840;52.122;5.404;2024-01-06T01:55:42;100662.13;;;4.67;100.00
71974;BME280;59840;52.122;5.404;2024-01-06T01:58:10;100674.00;;;4.63;100.00
71974;BME280;59840;52.122;5.404;2024-01-06T02:00:38;100669.78;;;4.62;100.00
71974;BME280;59840;52.122;5.404;2024-01-06T02:03:05;100670.78;;;4.61;100.00
71974;BME280;59840;52.122;5.404;2024-01-06T02:05:33;100675.44;;;4.59;100.00
71974;BME280;59840;52.122;5.404;2024-01-06T02:08:00;100688.88;;;4.63;100.00
71974;BME280;59840;52.122;5.404;2024-01-06T02:10:27;100681.03;;;4.63;100.00
71974;BME280;59840;52.122;5.404;2024-01-06T02:12:54;100679.63;;;4.67;100.00
71974;BME280;59840;52.122;5.404;2024-01-06T02:15:21;100692.09;;;4.65;100.00
71974;BME280;59840;52.122;5.404;2024-01-06T02:17:48;100683.81;;;4.68;100.00
71974;BME280;59840;52.122;5.404;2024-01-06T02:20:16;100692.28;;;4.63;100.00
71974;BME280;59840;52.122;5.404;2024-01-06T02:22:42;100697.50;;;4.63;100.00
71974;BME280;59840;52.122;5.404;2024-01-06T02:25:09;100701.13;;;4.62;100.00
71974;BME280;59840;52.122;5.404;2024-01-06T02:27:39;100695.91;;;4.62;100.00
71974;BME280;59840;52.122;5.404;2024-01-06T02:30:06;100707.16;;;4.63;100.00
71974;BME280;59840;52.122;5.404;2024-01-06T02:32:34;100694.91;;;4.63;100.00
71974;BME280;59840;52.122;5.404;2024-01-06T02:35:01;100697.94;;;4.60;100.00
71974;BME280;59840;52.122;5.404;2024-01-06T02:37:27;100708.19;;;4.62;100.00
71974;BME280;59840;52.122;5.404;2024-01-06T02:39:54;100709.41;;;4.59;100.00
71974;BME280;59840;52.122;5.404;2024-01-06T02:42:21;100715.81;;;4.63;100.00
71974;BME280;59840;52.122;5.404;2024-01-06T02:44:47;100715.19;;;4.68;100.00
71974;BME280;59840;52.122;5.404;2024-01-06T02:47:14;100722.63;;;4.64;100.00
71974;BME280;59840;52.122;5.404;2024-01-06T02:49:41;100723.84;;;4.62;100.00
71974;BME280;59840;52.122;5.404;2024-01-06T02:52:08;100728.50;;;4.60;100.00
71974;BME280;59840;52.122;5.404;2024-01-06T02:54:35;100734.53;;;4.54;100.00
71974;BME280;59840;52.122;5.404;2024-01-06T02:57:02;100730.31;;;4.53;100.00
71974;BME280;59840;52.122;5.404;2024-01-06T02:59:28;100734.75;;;4.52;100.00
71974;BME280;59840;52.122;5.404;2024-01-06T03:01:55;100736.78;;;4.50;100.00
71974;BME280;59840;52.122;5.404;2024-01-06T03:04:22;100731.78;;;4.49;100.00
71974;BME280;59840;52.122;5.404;2024-01-06T03:06:49;100737.34;;;4.52;100.00
71974;BME280;59840;52.122;5.404;2024-01-06T03:09:20;100745.00;;;4.54;100.00
71974;BME280;59840;52.122;5.404;2024-01-06T03:11:46;100747.81;;;4.52;100.00
71974;BME280;59840;52.122;5.404;2024-01-06T03:14:13;100752.22;;;4.52;100.00
71974;BME280;59840;52.122;5.404;2024-01-06T03:16:42;100742.22;;;4.49;100.00
71974;BME280;59840;52.122;5.404;2024-01-06T03:19:08;100752.03;;;4.53;100.00
71974;BME280;59840;52.122;5.404;2024-01-06T03:21:35;100756.66;;;4.51;100.00
71974;BME280;59840;52.122;5.404;2024-01-06T03:24:02;100759.50;;;4.50;100.00
71974;BME280;59840;52.122;5.404;2024-01-06T03:26:28;100755.91;;;4.44;100.00
71974;BME280;59840;52.122;5.404;2024-01-06T03:28:56;100766.94;;;4.46;100.00
71974;BME280;59840;52.122;5.404;2024-01-06T03:31:22;100771.38;;;4.46;100.00
71974;BME280;59840;52.122;5.404;2024-01-06T03:33:49;100770.34;;;4.47;100.00
71974;BME280;59840;52.122;5.404;2024-01-06T03:36:16;100779.81;;;4.48;100.00
71974;BME280;59840;52.122;5.404;2024-01-06T03:38:43;100785.22;;;4.46;100.00
71974;BME280;59840;52.122;5.404;2024-01-06T03:41:10;100789.44;;;4.47;100.00
71974;BME280;59840;52.122;5.404;2024-01-06T03:43:36;100799.69;;;4.49;100.00
71974;BME280;59840;52.122;5.404;2024-01-06T03:46:05;100795.69;;;4.46;100.00
71974;BME280;59840;52.122;5.404;2024-01-06T03:48:31;100809.34;;;4.48;100.00
71974;BME280;59840;52.122;5.404;2024-01-06T03:51:02;100808.34;;;4.49;100.00
71974;BME280;59840;52.122;5.404;2024-01-06T03:53:29;100808.75;;;4.46;100.00
71974;BME280;59840;52.122;5.404;2024-01-06T03:55:56;100801.31;;;4.43;100.00
71974;BME280;59840;52.122;5.404;2024-01-06T03:58:22;100805.34;;;4.39;100.00
71974;BME280;59840;52.122;5.404;2024-01-06T04:00:49;100813.16;;;4.39;100.00
71974;BME280;59840;52.122;5.404;2024-01-06T04:03:15;100815.59;;;4.41;100.00
71974;BME280;59840;52.122;5.404;2024-01-06T04:05:42;100819.81;;;4.35;100.00
71974;BME280;59840;52.122;5.404;2024-01-06T04:08:09;100826.63;;;4.36;100.00
71974;BME280;59840;52.122;5.404;2024-01-06T04:10:35;100821.22;;;4.31;100.00
71974;BME280;59840;52.122;5.404;2024-01-06T04:13:02;100823.81;;;4.31;100.00
71974;BME280;59840;52.122;5.404;2024-01-06T04:15:29;100826.84;;;4.28;100.00
71974;BME280;59840;52.122;5.404;2024-01-06T04:17:56;100832.47;;;4.25;100.00
71974;BME280;59840;52.122;5.404;2024-01-06T04:20:22;100826.25;;;4.26;100.00
71974;BME280;59840;52.122;5.404;2024-01-06T04:22:49;100820.22;;;4.25;100.00
71974;BME280;59840;52.122;5.404;2024-01-06T04:25:16;100832.47;;;4.25;100.00
71974;BME280;59840;52.122;5.404;2024-01-06T04:27:42;100826.03;;;4.21;100.00
71974;BME280;59840;52.122;5.404;2024-01-06T04:30:09;100829.25;;;4.23;100.00
71974;BME280;59840;52.122;5.404;2024-01-06T04:32:36;100827.66;;;4.22;100.00
71974;BME280;59840;52.122;5.404;2024-01-06T04:35:03;100831.25;;;4.21;100.00
71974;BME280;59840;52.122;5.404;2024-01-06T04:37:30;100843.13;;;4.23;100.00
71974;BME280;59840;52.122;5.404;2024-01-06T04:39:57;100842.13;;;4.24;100.00
71974;BME280;59840;52.122;5.404;2024-01-06T04:42:24;100851.16;;;4.22;100.00
71974;BME280;59840;52.122;5.404;2024-01-06T04:44:50;100846.94;;;4.21;100.00
71974;BME280;59840;52.122;5.404;2024-01-06T04:47:17;100846.34;;;4.19;100.00
71974;BME280;59840;52.122;5.404;2024-01-06T04:49:44;100847.34;;;4.18;100.00
71974;BME280;59840;52.122;5.404;2024-01-06T04:52:11;100851.78;;;4.11;100.00
71974;BME280;59840;52.122;5.404;2024-01-06T04:54:38;100854.19;;;4.06;100.00
71974;BME280;59840;52.122;5.404;2024-01-06T04:57:05;100855.97;;;3.98;100.00
71974;BME280;59840;52.122;5.404;2024-01-06T04:59:31;100862.59;;;3.94;100.00
71974;BME280;59840;52.122;5.404;2024-01-06T05:01:58;100877.06;;;3.90;100.00
71974;BME280;59840;52.122;5.404;2024-01-06T05:04:25;100873.63;;;3.90;100.00
71974;BME280;59840;52.122;5.404;2024-01-06T05:06:52;100881.28;;;3.91;100.00
71974;BME280;59840;52.122;5.404;2024-01-06T05:09:18;100878.06;;;3.89;100.00
71974;BME280;59840;52.122;5.404;2024-01-06T05:11:45;100877.66;;;3.86;100.00
71974;BME280;59840;52.122;5.404;2024-01-06T05:14:12;100885.47;;;3.86;100.00
71974;BME280;59840;52.122;5.404;2024-01-06T05:16:38;100888.91;;;3.86;100.00
71974;BME280;59840;52.122;5.404;2024-01-06T05:19:05;100892.09;;;3.88;100.00
71974;BME280;59840;52.122;5.404;2024-01-06T05:21:32;100891.50;;;3.86;100.00
71974;BME280;59840;52.122;5.404;2024-01-06T05:23:59;100895.72;;;3.87;100.00
71974;BME280;59840;52.122;5.404;2024-01-06T05:26:26;100903.16;;;3.84;100.00
71974;BME280;59840;52.122;5.404;2024-01-06T05:28:52;100908.56;;;3.82;100.00
71974;BME280;59840;52.122;5.404;2024-01-06T05:31:19;100911.97;;;3.83;100.00
71974;BME280;59840;52.122;5.404;2024-01-06T05:33:46;100918.00;;;3.83;100.00
71974;BME280;59840;52.122;5.404;2024-01-06T05:36:12;100915.81;;;3.80;100.00
71974;BME280;59840;52.122;5.404;2024-01-06T05:38:39;100912.97;;;3.75;100.00
71974;BME280;59840;52.122;5.404;2024-01-06T05:41:05;100917.00;;;3.71;100.00
71974;BME280;59840;52.122;5.404;2024-01-06T05:43:32;100924.63;;;3.73;100.00
71974;BME280;59840;52.122;5.404;2024-01-06T05:45:58;100910.16;;;3.70;100.00
71974;BME280;59840;52.122;5.404;2024-01-06T05:48:25;100919.59;;;3.71;100.00
71974;BME280;59840;52.122;5.404;2024-01-06T05:50:52;100928.22;;;3.72;100.00
71974;BME280;59840;52.122;5.404;2024-01-06T05:53:19;100933.66;;;3.70;100.00
71974;BME280;59840;52.122;5.404;2024-01-06T05:55:45;100931.84;;;3.70;100.00
71974;BME280;59840;52.122;5.404;2024-01-06T05:58:12;100930.44;;;3.68;100.00
71974;BME280;59840;52.122;5.404;2024-01-06T06:00:39;100928.81;;;3.67;100.00
71974;BME280;59840;52.122;5.404;2024-01-06T06:03:06;100931.63;;;3.65;100.00
71974;BME280;59840;52.122;5.404;2024-01-06T06:05:34;100937.41;;;3.61;100.00
71974;BME280;59840;52.122;5.404;2024-01-06T06:08:00;100945.06;;;3.62;100.00
71974;BME280;59840;52.122;5.404;2024-01-06T06:10:28;100939.22;;;3.60;100.00
71974;BME280;59840;52.122;5.404;2024-01-06T06:13:07;100950.47;;;3.61;100.00
71974;BME280;59840;52.122;5.404;2024-01-06T06:15:37;100965.13;;;3.62;100.00
71974;BME280;59840;52.122;5.404;2024-01-06T06:18:04;100961.50;;;3.63;100.00
71974;BME280;59840;52.122;5.404;2024-01-06T06:20:30;100974.38;;;3.64;100.00
71974;BME280;59840;52.122;5.404;2024-01-06T06:22:57;100975.13;;;3.58;100.00
71974;BME280;59840;52.122;5.404;2024-01-06T06:25:24;100979.94;;;3.55;100.00
71974;BME280;59840;52.122;5.404;2024-01-06T06:27:50;100971.09;;;3.49;100.00
71974;BME280;59840;52.122;5.404;2024-01-06T06:30:17;100977.28;;;3.48;100.00
71974;BME280;59840;52.122;5.404;2024-01-06T06:32:43;100984.94;;;3.50;100.00
71974;BME280;59840;52.122;5.404;2024-01-06T06:35:10;100989.16;;;3.44;100.00
71974;BME280;59840;52.122;5.404;2024-01-06T06:37:37;100999.56;;;3.44;100.00
71974;BME280;59840;52.122;5.404;2024-01-06T06:40:04;100997.75;;;3.38;100.00
71974;BME280;59840;52.122;5.404;2024-01-06T06:42:31;101000.53;;;3.36;100.00
71974;BME280;59840;52.122;5.404;2024-01-06T06:44:57;101009.53;;;3.34;100.00
71974;BME280;59840;52.122;5.404;2024-01-06T06:47:24;101017.38;;;3.34;100.00
71974;BME280;59840;52.122;5.404;2024-01-06T06:49:51;101011.16;;;3.35;100.00
71974;BME280;59840;52.122;5.404;2024-01-06T06:52:17;101023.19;;;3.36;100.00
71974;BME280;59840;52.122;5.404;2024-01-06T06:54:44;101022.81;;;3.39;100.00
71974;BME280;59840;52.122;5.404;2024-01-06T06:57:11;101021.03;;;3.40;100.00
71974;BME280;59840;52.122;5.404;2024-01-06T06:59:38;101027.66;;;3.42;100.00
71974;BME280;59840;52.122;5.404;2024-01-06T07:02:05;101034.88;;;3.40;100.00
71974;BME280;59840;52.122;5.404;2024-01-06T07:04:32;101030.47;;;3.41;100.00
71974;BME280;59840;52.122;5.404;2024-01-06T07:06:59;101049.72;;;3.40;100.00
71974;BME280;59840;52.122;5.404;2024-01-06T07:09:25;101047.72;;;3.42;100.00
71974;BME280;59840;52.122;5.404;2024-01-06T07:11:52;101042.69;;;3.47;100.00
71974;BME280;59840;52.122;5.404;2024-01-06T07:14:19;101051.13;;;3.49;100.00
71974;BME280;59840;52.122;5.404;2024-01-06T07:16:45;101059.38;;;3.46;100.00
71974;BME280;59840;52.122;5.404;2024-01-06T07:19:12;101068.78;;;3.47;100.00
71974;BME280;59840;52.122;5.404;2024-01-06T07:21:39;101066.00;;;3.48;100.00
71974;BME280;59840;52.122;5.404;2024-01-06T07:24:05;101069.41;;;3.49;100.00
71974;BME280;59840;52.122;5.404;2024-01-06T07:26:32;101087.28;;;3.45;100.00
71974;BME280;59840;52.122;5.404;2024-01-06T07:28:59;101078.63;;;3.45;100.00
71974;BME280;59840;52.122;5.404;2024-01-06T07:31:25;101079.22;;;3.47;100.00
71974;BME280;59840;52.122;5.404;2024-01-06T07:33:52;101077.41;;;3.47;100.00
71974;BME280;59840;52.122;5.404;2024-01-06T07:36:19;101082.63;;;3.47;100.00
71974;BME280;59840;52.122;5.404;2024-01-06T07:38:45;101084.44;;;3.47;100.00
71974;BME280;59840;52.122;5.404;2024-01-06T07:41:12;101096.28;;;3.49;100.00
71974;BME280;59840;52.122;5.404;2024-01-06T07:43:39;101096.47;;;3.48;100.00
71974;BME280;59840;52.122;5.404;2024-01-06T07:46:05;101096.09;;;3.51;100.00
71974;BME280;59840;52.122;5.404;2024-01-06T07:48:33;101098.53;;;3.52;100.00
71974;BME280;59840;52.122;5.404;2024-01-06T07:51:00;101123.63;;;3.53;100.00
71974;BME280;59840;52.122;5.404;2024-01-06T07:53:26;101120.00;;;3.54;100.00
71974;BME280;59840;52.122;5.404;2024-01-06T07:55:53;101127.84;;;3.54;100.00
71974;BME280;59840;52.122;5.404;2024-01-06T07:58:20;101118.22;;;3.55;100.00
71974;BME280;59840;52.122;5.404;2024-01-06T08:00:48;101123.81;;;3.52;100.00
71974;BME280;59840;52.122;5.404;2024-01-06T08:03:15;101114.38;;;3.51;100.00
71974;BME280;59840;52.122;5.404;2024-01-06T08:05:42;101129.22;;;3.50;100.00
71974;BME280;59840;52.122;5.404;2024-01-06T08:08:09;101145.66;;;3.51;100.00
71974;BME280;59840;52.122;5.404;2024-01-06T08:10:36;101135.25;;;3.51;100.00
71974;BME280;59840;52.122;5.404;2024-01-06T08:13:02;101144.88;;;3.50;100.00
71974;BME280;59840;52.122;5.404;2024-01-06T08:15:30;101151.88;;;3.50;100.00
71974;BME280;59840;52.122;5.404;2024-01-06T08:17:58;101152.50;;;3.52;100.00
71974;BME280;59840;52.122;5.404;2024-01-06T08:20:25;101151.50;;;3.53;100.00
71974;BME280;59840;52.122;5.404;2024-01-06T08:22:52;101160.94;;;3.54;100.00
71974;BME280;59840;52.122;5.404;2024-01-06T08:25:19;101157.53;;;3.53;100.00
71974;BME280;59840;52.122;5.404;2024-01-06T08:27:45;101162.13;;;3.51;100.00
71974;BME280;59840;52.122;5.404;2024-01-06T08:30:12;101168.97;;;3.52;100.00
71974;BME280;59840;52.122;5.404;2024-01-06T08:32:39;101167.78;;;3.55;100.00
71974;BME280;59840;52.122;5.404;2024-01-06T08:35:06;101169.41;;;3.56;100.00
71974;BME280;59840;52.122;5.404;2024-01-06T08:37:33;101177.03;;;3.57;100.00
71974;BME280;59840;52.122;5.404;2024-01-06T08:39:59;101182.44;;;3.56;100.00
71974;BME280;59840;52.122;5.404;2024-01-06T08:42:26;101186.22;;;3.53;100.00
71974;BME280;59840;52.122;5.404;2024-01-06T08:44:52;101179.22;;;3.54;100.00
71974;BME280;59840;52.122;5.404;2024-01-06T08:47:19;101184.66;;;3.59;100.00
71974;BME280;59840;52.122;5.404;2024-01-06T08:49:46;101189.09;;;3.58;100.00
71974;BME280;59840;52.122;5.404;2024-01-06T08:52:12;101197.91;;;3.57;100.00
71974;BME280;59840;52.122;5.404;2024-01-06T08:54:39;101205.91;;;3.56;100.00
71974;BME280;59840;52.122;5.404;2024-01-06T08:57:06;101200.28;;;3.52;100.00
71974;BME280;59840;52.122;5.404;2024-01-06T08:59:33;101206.91;;;3.55;100.00
71974;BME280;59840;52.122;5.404;2024-01-06T09:02:03;101217.97;;;3.57;100.00
71974;BME280;59840;52.122;5.404;2024-01-06T09:04:30;101224.56;;;3.53;100.00
71974;BME280;59840;52.122;5.404;2024-01-06T09:06:56;101225.97;;;3.55;100.00
71974;BME280;59840;52.122;5.404;2024-01-06T09:09:24;101224.63;;;3.59;100.00
71974;BME280;59840;52.122;5.404;2024-01-06T09:11:50;101227.03;;;3.61;100.00
71974;BME280;59840;52.122;5.404;2024-01-06T09:14:18;101230.09;;;3.64;100.00
71974;BME280;59840;52.122;5.404;2024-01-06T09:16:45;101233.13;;;3.68;100.00
71974;BME280;59840;52.122;5.404;2024-01-06T09:19:11;101238.16;;;3.69;100.00
71974;BME280;59840;52.122;5.404;2024-01-06T09:21:38;101236.53;;;3.68;100.00
71974;BME280;59840;52.122;5.404;2024-01-06T09:24:05;101247.22;;;3.74;100.00
71974;BME280;59840;52.122;5.404;2024-01-06T09:26:33;101249.22;;;3.72;100.00
71974;BME280;59840;52.122;5.404;2024-01-06T09:29:01;101248.03;;;3.74;100.00
71974;BME280;59840;52.122;5.404;2024-01-06T09:31:28;101253.88;;;3.76;100.00
71974;BME280;59840;52.122;5.404;2024-01-06T09:33:55;101265.50;;;3.74;100.00
71974;BME280;59840;52.122;5.404;2024-01-06T09:36:22;101265.31;;;3.75;100.00
71974;BME280;59840;52.122;5.404;2024-01-06T09:38:49;101265.56;;;3.80;100.00
71974;BME280;59840;52.122;5.404;2024-01-06T09:41:15;101275.59;;;3.83;100.00
71974;BME280;59840;52.122;5.404;2024-01-06T09:43:42;101280.44;;;3.86;100.00
71974;BME280;59840;52.122;5.404;2024-01-06T09:46:24;101275.63;;;3.90;100.00
71974;BME280;59840;52.122;5.404;2024-01-06T09:48:54;101280.88;;;3.90;100.00
71974;BME280;59840;52.122;5.404;2024-01-06T09:51:22;101285.91;;;3.91;100.00
71974;BME280;59840;52.122;5.404;2024-01-06T09:53:57;101292.47;;;3.87;100.00
71974;BME280;59840;52.122;5.404;2024-01-06T09:56:26;101297.28;;;3.84;100.00
71974;BME280;59840;52.122;5.404;2024-01-06T09:58:53;101300.88;;;3.83;100.00
71974;BME280;59840;52.122;5.404;2024-01-06T10:01:20;101298.09;;;3.84;100.00
71974;BME280;59840;52.122;5.404;2024-01-06T10:03:47;101301.94;;;3.88;100.00
71974;BME280;59840;52.122;5.404;2024-01-06T10:06:15;101298.69;;;3.86;100.00
71974;BME280;59840;52.122;5.404;2024-01-06T10:08:43;101318.97;;;3.84;100.00
71974;BME280;59840;52.122;5.404;2024-01-06T10:11:09;101317.97;;;3.85;100.00
71974;BME280;59840;52.122;5.404;2024-01-06T10:13:36;101317.97;;;3.85;100.00
71974;BME280;59840;52.122;5.404;2024-01-06T10:16:06;101327.78;;;3.83;100.00
71974;BME280;59840;52.122;5.404;2024-01-06T10:18:34;101323.56;;;3.82;100.00
71974;BME280;59840;52.122;5.404;2024-01-06T10:21:05;101333.63;;;3.85;100.00
71974;BME280;59840;52.122;5.404;2024-01-06T10:23:33;101333.00;;;3.83;100.00
71974;BME280;59840;52.122;5.404;2024-01-06T10:26:00;101332.44;;;3.88;100.00
71974;BME280;59840;52.122;5.404;2024-01-06T10:28:30;101331.66;;;3.87;100.00
71974;BME280;59840;52.122;5.404;2024-01-06T10:30:57;101342.47;;;3.84;100.00
71974;BME280;59840;52.122;5.404;2024-01-06T10:33:25;101340.84;;;3.83;100.00
71974;BME280;59840;52.122;5.404;2024-01-06T10:35:53;101347.19;;;3.95;100.00
71974;BME280;59840;52.122;5.404;2024-01-06T10:38:22;101347.75;;;3.91;100.00
71974;BME280;59840;52.122;5.404;2024-01-06T10:40:56;101352.72;;;3.86;100.00
71974;BME280;59840;52.122;5.404;2024-01-06T10:43:27;101349.91;;;3.87;100.00
71974;BME280;59840;52.122;5.404;2024-01-06T10:46:02;101356.56;;;3.90;100.00
71974;BME280;59840;52.122;5.404;2024-01-06T10:48:35;101358.38;;;3.89;100.00
71974;BME280;59840;52.122;5.404;2024-01-06T10:51:04;101355.94;;;3.88;100.00
71974;BME280;59840;52.122;5.404;2024-01-06T10:53:34;101362.72;;;3.82;100.00
71974;BME280;59840;52.122;5.404;2024-01-06T10:56:04;101357.50;;;3.82;100.00
71974;BME280;59840;52.122;5.404;2024-01-06T10:58:32;101350.66;;;3.81;100.00
71974;BME280;59840;52.122;5.404;2024-01-06T11:01:00;101356.94;;;3.87;100.00
71974;BME280;59840;52.122;5.404;2024-01-06T11:03:28;101355.94;;;3.88;100.00
71974;BME280;59840;52.122;5.404;2024-01-06T11:05:58;101363.22;;;3.92;100.00
71974;BME280;59840;52.122;5.404;2024-01-06T11:08:25;101362.41;;;3.92;100.00
71974;BME280;59840;52.122;5.404;2024-01-06T11:10:53;101372.41;;;3.88;100.00
71974;BME280;59840;52.122;5.404;2024-01-06T11:13:23;101368.81;;;3.89;100.00
71974;BME280;59840;52.122;5.404;2024-01-06T11:15:51;101372.03;;;3.91;100.00
71974;BME280;59840;52.122;5.404;2024-01-06T11:18:38;101375.28;;;3.93;100.00
71974;BME280;59840;52.122;5.404;2024-01-06T11:21:15;101368.88;;;3.96;100.00
71974;BME280;59840;52.122;5.404;2024-01-06T11:24:24;101378.13;;;3.98;100.00
71974;BME280;59840;52.122;5.404;2024-01-06T11:26:56;101376.34;;;3.99;100.00
71974;BME280;59840;52.122;5.404;2024-01-06T11:29:23;101373.78;;;4.06;100.00
71974;BME280;59840;52.122;5.404;2024-01-06T11:32:25;101378.28;;;4.18;100.00
71974;BME280;59840;52.122;5.404;2024-01-06T11:34:55;101378.03;;;4.34;100.00
71974;BME280;59840;52.122;5.404;2024-01-06T11:37:25;101379.31;;;4.45;100.00
71974;BME280;59840;52.122;5.404;2024-01-06T11:39:52;101374.09;;;4.45;100.00
71974;BME280;59840;52.122;5.404;2024-01-06T11:42:19;101377.78;;;4.57;100.00
71974;BME280;59840;52.122;5.404;2024-01-06T11:44:50;101383.38;;;4.54;100.00
71974;BME280;59840;52.122;5.404;2024-01-06T11:47:17;101368.09;;;4.51;100.00
71974;BME280;59840;52.122;5.404;2024-01-06T11:49:44;101376.78;;;4.58;100.00
71974;BME280;59840;52.122;5.404;2024-01-06T11:52:13;101380.94;;;4.46;100.00
71974;BME280;59840;52.122;5.404;2024-01-06T11:54:40;101385.97;;;4.48;100.00
71974;BME280;59840;52.122;5.404;2024-01-06T11:57:08;101384.16;;;4.48;100.00
71974;BME280;59840;52.122;5.404;2024-01-06T11:59:36;101376.72;;;4.45;100.00
71974;BME280;59840;52.122;5.404;2024-01-06T12:02:02;101380.97;;;4.53;100.00
71974;BME280;59840;52.122;5.404;2024-01-06T12:04:29;101380.13;;;4.46;100.00
71974;BME280;59840;52.122;5.404;2024-01-06T12:07:06;101388.53;;;4.41;100.00
71974;BME280;59840;52.122;5.404;2024-01-06T12:09:33;101384.50;;;4.38;99.42
71974;BME280;59840;52.122;5.404;2024-01-06T12:12:04;101381.22;;;4.30;100.00
71974;BME280;59840;52.122;5.404;2024-01-06T12:14:31;101392.78;;;4.21;99.24
71974;BME280;59840;52.122;5.404;2024-01-06T12:16:59;101385.78;;;4.00;100.00
71974;BME280;59840;52.122;5.404;2024-01-06T12:19:31;101385.72;;;3.93;100.00
71974;BME280;59840;52.122;5.404;2024-01-06T12:22:01;101384.91;;;3.93;100.00
71974;BME280;59840;52.122;5.404;2024-01-06T12:24:29;101386.53;;;3.94;100.00
71974;BME280;59840;52.122;5.404;2024-01-06T12:26:56;101394.53;;;3.92;100.00
71974;BME280;59840;52.122;5.404;2024-01-06T12:29:28;101404.53;;;3.89;100.00
71974;BME280;59840;52.122;5.404;2024-01-06T12:32:02;101398.44;;;3.82;100.00
71974;BME280;59840;52.122;5.404;2024-01-06T12:34:29;101397.63;;;3.81;100.00
71974;BME280;59840;52.122;5.404;2024-01-06T12:36:56;101400.25;;;3.81;100.00
71974;BME280;59840;52.122;5.404;2024-01-06T12:39:23;101400.06;;;3.83;100.00
71974;BME280;59840;52.122;5.404;2024-01-06T12:41:50;101398.44;;;3.82;100.00
71974;BME280;59840;52.122;5.404;2024-01-06T12:44:17;101405.47;;;3.81;100.00
71974;BME280;59840;52.122;5.404;2024-01-06T12:46:44;101400.25;;;3.81;100.00
71974;BME280;59840;52.122;5.404;2024-01-06T12:49:11;101407.09;;;3.82;100.00
71974;BME280;59840;52.122;5.404;2024-01-06T12:51:38;101396.44;;;3.77;100.00